CST,Max TemperatureF,Mean TemperatureF,Min TemperatureF,Max Dew PointF,MeanDew PointF,Min DewpointF,Max Humidity, Mean Humidity, Min Humidity, Max Sea Level PressureIn, Mean Sea Level PressureIn, Min Sea Level PressureIn, Max VisibilityMiles, Mean VisibilityMiles, Min VisibilityMiles, Max Wind SpeedMPH, Mean Wind SpeedMPH, Max Gust SpeedMPH,PrecipitationIn, CloudCover, Events, WindDirDegrees
2013-2-1,66,54,41,39,36,32,82,56,30,30.41,30.34,30.30,10,10,10,9,3,17,0.00,0,,58
2013-2-2,70,54,38,51,44,37,96,67,37,30.33,30.26,30.18,10,10,10,14,5,17,0.00,1,,199
2013-2-3,70,57,43,51,37,20,100,58,15,30.30,30.22,30.12,10,10,6,12,3,21,0.00,1,,348
2013-2-4,61,52,42,54,47,36,93,77,60,30.10,30.01,29.95,10,9,1,10,5,14,0.09,4,Rain,94
2013-2-5,72,62,52,59,57,53,100,81,61,30.04,29.99,29.94,10,5,0,8,2,13,T,4,Fog-Rain,67
2013-2-6,68,60,52,61,56,52,100,89,78,30.12,30.07,29.97,10,6,0,16,6,20,0.20,5,Fog-Rain,83
2013-2-7,70,62,54,58,57,53,100,83,66,29.97,29.92,29.85,10,10,5,20,5,24,0.55,5,Rain,346
2013-2-8,70,62,53,61,55,48,100,80,59,30.17,30.06,29.97,10,6,0,14,6,18,0.00,6,Fog,309
2013-2-9,65,57,49,59,51,44,93,83,72,30.22,30.13,30.03,10,10,8,16,10,21,0.00,6,Rain,99
2013-2-10,77,69,61,70,65,58,100,87,73,30.01,29.94,29.87,10,9,6,26,12,33,0.16,8,Rain,157
2013-2-11,70,62,53,67,55,51,100,93,86,30.15,30.05,29.96,10,7,2,21,9,29,1.62,8,Rain-Thunderstorm,43
2013-2-12,69,62,54,67,57,51,100,97,93,30.05,29.90,29.74,10,6,0,22,9,31,0.79,8,Fog-Rain,75
2013-2-13,58,49,40,52,43,37,96,76,55,30.09,30.00,29.88,10,10,10,16,6,23,0.01,4,Rain,316
2013-2-14,61,48,35,41,38,33,100,68,36,30.17,30.11,30.07,10,10,9,8,3,17,0.00,0,,2
2013-2-15,66,51,36,40,37,34,100,66,31,30.20,30.15,30.09,10,10,10,14,4,20,0.00,0,,330
2013-2-16,53,44,34,38,26,17,82,54,26,30.33,30.27,30.21,10,10,10,18,7,29,0.00,1,,318
2013-2-17,63,48,32,38,32,25,89,62,34,30.36,30.28,30.21,10,10,10,16,8,22,0.00,0,,132
2013-2-18,66,55,43,63,52,37,100,80,60,30.21,30.05,29.95,10,9,2,23,11,30,0.65,7,Rain,137
2013-2-19,66,55,44,61,44,26,87,56,24,30.24,30.12,29.96,10,9,0,23,9,25,0.83,3,Fog-Rain,353
2013-2-20,60,50,39,38,31,25,64,46,28,30.25,30.13,30.01,10,10,10,18,10,23,0.00,2,,84
2013-2-21,72,61,50,68,56,37,93,76,59,30.01,29.87,29.74,10,9,2,30,14,37,0.36,8,Rain,141
2013-2-22,71,63,54,68,54,49,93,73,52,29.99,29.92,29.86,10,9,2,14,7,17,0.89,8,Rain-Thunderstorm,39
2013-2-23,64,57,50,51,49,45,89,75,60,29.98,29.93,29.88,10,10,10,9,4,14,0.00,3,,21
2013-2-24,72,58,43,58,50,42,93,73,53,29.98,29.88,29.74,10,9,4,17,8,22,0.63,3,Rain-Thunderstorm,81
2013-2-25,67,61,54,64,59,37,100,76,51,29.72,29.61,29.44,10,8,2,25,12,30,0.59,7,Rain-Thunderstorm,130
2013-2-26,58,52,45,43,38,33,80,64,47,29.94,29.79,29.61,10,10,10,24,11,40,0.00,2,,263
2013-2-27,70,57,43,46,40,36,96,62,28,30.07,29.98,29.94,10,10,10,21,5,25,0.00,1,,270
2013-2-28,52,48,43,34,30,26,65,52,39,30.18,30.12,30.08,10,10,10,13,5,18,0.00,0,,309